This is the latest recevied weather packets stored in our database for station/object YM2KRB-11. If no packets are shown the sender has not sent any weather packets the latest 10 day(s).
| Time | Temp. | Humidity | Pressure | Rain* | Wind** | Luminosity | Snow |
|---|---|---|---|---|---|---|---|
| 1777886583 | 22.22° C | 32% | 933.8 hPa | - | - | - | - |
| 1777885383 | 19.44° C | 37% | 933.7 hPa | - | - | - | - |
| 1777884182 | 17.78° C | 40% | 933.7 hPa | - | - | - | - |
| 1777882981 | 18.89° C | 39% | 933.7 hPa | - | - | - | - |
| 1777881780 | 17.22° C | 43% | 933.7 hPa | - | - | - | - |
| 1777880579 | 17.22° C | 44% | 933.5 hPa | - | - | - | - |
| 1777879378 | 16.67° C | 44% | 933.4 hPa | - | - | - | - |
| 1777878178 | 16.11° C | 45% | 933.3 hPa | - | - | - | - |
| 1777876977 | 16.11° C | 51% | 933.1 hPa | - | - | - | - |
| 1777875776 | 15° C | 53% | 933.2 hPa | - | - | - | - |
| 1777874575 | 14.44° C | 54% | 933.2 hPa | - | - | - | - |
| 1777873375 | 13.33° C | 56% | 933.4 hPa | - | - | - | - |
| 1777872174 | 17.78° C | 56% | 933.5 hPa | - | - | - | - |
| 1777870973 | 10° C | 67% | 933.4 hPa | - | - | - | - |
| 1777869772 | 9.44° C | 71% | 933.2 hPa | - | - | - | - |
| 1777868571 | 12.22° C | 61% | 933 hPa | - | - | - | - |
| 1777867371 | 12.22° C | 59% | 933 hPa | - | - | - | - |
| 1777866170 | 13.89° C | 60% | 933.1 hPa | - | - | - | - |
| 1777864969 | 12.22° C | 59% | 932.9 hPa | - | - | - | - |
| 1777863768 | 9.44° C | 69% | 932.8 hPa | - | - | - | - |
| 1777862568 | 13.33° C | 59% | 932.8 hPa | - | - | - | - |
| 1777861367 | 12.22° C | 62% | 932.7 hPa | - | - | - | - |
| 1777860166 | 13.33° C | 58% | 932.7 hPa | - | - | - | - |
| 1777858965 | 8.33° C | 75% | 932.8 hPa | - | - | - | - |
| 1777856564 | 8.33° C | 74% | 933 hPa | - | - | - | - |
* Rain since midnight (hover to see other rain measurements)
** Current wind speed in m/s (hover to see current wind gust speed)